createdAt,value
2019-05-01T00:02:05.690Z,25.25
2019-05-01T00:04:39.426Z,23.20
2019-05-01T00:07:13.620Z,19.80
2019-05-01T00:09:47.373Z,23.80
2019-05-01T00:12:21.108Z,23.25
2019-05-01T00:14:54.819Z,21.75
2019-05-01T00:17:28.548Z,22.75
2019-05-01T00:20:03.306Z,22.50
2019-05-01T00:22:37.037Z,23.50
2019-05-01T00:25:10.898Z,23.00
2019-05-01T00:27:44.838Z,23.00
2019-05-01T00:30:29.259Z,24.25
2019-05-01T00:32:53.963Z,21.00
2019-05-01T00:35:27.670Z,21.75
2019-05-01T00:38:01.395Z,22.00
2019-05-01T00:40:35.090Z,23.50
2019-05-01T00:43:08.802Z,21.75
2019-05-01T00:45:42.520Z,23.75
2019-05-01T00:48:16.278Z,23.75
2019-05-01T00:50:50.013Z,24.75
2019-05-01T00:53:23.716Z,25.25
2019-05-01T00:55:57.425Z,25.00
2019-05-01T00:58:31.146Z,25.25
2019-05-01T01:01:04.937Z,22.75
2019-05-01T01:03:38.645Z,24.00
2019-05-01T01:06:12.363Z,23.50
2019-05-01T01:08:46.077Z,21.50
2019-05-01T01:11:19.794Z,27.75
2019-05-01T01:13:53.513Z,24.75
2019-05-01T01:16:27.499Z,25.25
2019-05-01T01:19:01.203Z,26.00
2019-05-01T01:21:34.932Z,23.25
2019-05-01T01:24:08.654Z,24.80
2019-05-01T01:26:42.362Z,21.25
2019-05-01T01:29:16.060Z,20.75
2019-05-01T01:32:09.182Z,25.00
2019-05-01T01:34:42.871Z,21.50
2019-05-01T01:37:16.591Z,25.00
2019-05-01T01:39:50.285Z,22.25
2019-05-01T01:42:24.030Z,25.75
2019-05-01T01:44:57.738Z,22.20
2019-05-01T01:47:31.441Z,21.75
2019-05-01T01:50:06.419Z,22.50
2019-05-01T01:52:40.147Z,21.00
2019-05-01T01:55:13.981Z,24.00
2019-05-01T01:57:47.710Z,22.75
2019-05-01T02:00:21.422Z,23.00
2019-05-01T02:02:55.184Z,22.50
2019-05-01T02:05:28.878Z,22.75
2019-05-01T02:08:02.589Z,24.75
2019-05-01T02:10:43.012Z,24.75
2019-05-01T02:13:11.769Z,24.40
2019-05-01T02:15:45.449Z,21.75
2019-05-01T02:18:19.164Z,23.25
2019-05-01T02:20:52.863Z,21.25
2019-05-01T02:23:26.574Z,22.75
2019-05-01T02:26:00.351Z,26.00
2019-05-01T02:28:34.047Z,20.25
2019-05-01T02:31:07.753Z,23.75
2019-05-01T02:33:41.458Z,25.25
2019-05-01T02:36:15.507Z,24.00
2019-05-01T02:38:49.228Z,22.00
2019-05-01T02:41:24.573Z,22.20
2019-05-01T02:44:04.616Z,26.50
2019-05-01T02:46:39.379Z,22.25
2019-05-01T02:49:25.409Z,21.25
2019-05-01T02:51:59.147Z,22.50
2019-05-01T02:54:33.417Z,22.80
2019-05-01T02:57:07.508Z,22.25
2019-05-01T02:59:43.122Z,25.00
2019-05-01T03:02:17.011Z,26.00
2019-05-01T03:04:51.342Z,26.00
2019-05-01T03:07:25.070Z,24.00
2019-05-01T03:09:59.040Z,23.25
2019-05-01T03:12:32.817Z,25.25
2019-05-01T03:15:06.602Z,23.75
2019-05-01T03:17:40.315Z,21.00
2019-05-01T03:20:14.031Z,24.00
2019-05-01T03:22:47.734Z,21.25
2019-05-01T03:25:21.436Z,25.75
2019-05-01T03:27:55.175Z,22.00
2019-05-01T03:30:28.897Z,26.00
2019-05-01T03:33:03.642Z,23.50
2019-05-01T03:35:37.343Z,22.75
2019-05-01T03:38:11.125Z,24.20
2019-05-01T03:40:44.854Z,25.25
2019-05-01T03:43:18.567Z,26.00
2019-05-01T03:45:52.365Z,22.25
2019-05-01T03:48:26.173Z,26.00
2019-05-01T03:50:59.898Z,23.00
2019-05-01T03:53:33.994Z,26.00
2019-05-01T03:56:07.683Z,25.00
2019-05-01T03:58:41.387Z,26.00
2019-05-01T04:01:15.100Z,26.25
2019-05-01T04:03:49.151Z,26.25
2019-05-01T04:06:22.929Z,24.25
2019-05-01T04:08:56.645Z,24.50
2019-05-01T04:11:30.421Z,25.40
2019-05-01T04:14:04.665Z,24.25
2019-05-01T04:16:38.380Z,25.80
2019-05-01T04:19:12.147Z,26.00
2019-05-01T04:21:45.849Z,25.50
2019-05-01T04:24:19.559Z,25.25
2019-05-01T04:26:53.280Z,26.00
2019-05-01T04:29:27.000Z,24.75
2019-05-01T04:32:00.919Z,25.25
2019-05-01T04:34:34.639Z,25.25
2019-05-01T04:37:08.334Z,22.60
2019-05-01T04:39:42.052Z,18.50
2019-05-01T04:42:15.791Z,24.00
2019-05-01T04:44:49.500Z,20.25
2019-05-01T04:47:23.218Z,22.00
2019-05-01T04:49:56.917Z,22.00
2019-05-01T04:52:30.617Z,25.00
2019-05-01T04:55:05.265Z,20.00
2019-05-01T04:57:38.994Z,21.25
2019-05-01T05:00:12.696Z,19.25
2019-05-01T05:02:46.403Z,21.00
2019-05-01T05:05:20.103Z,20.25
2019-05-01T05:07:54.297Z,23.25
2019-05-01T05:10:28.008Z,19.25
2019-05-01T05:13:01.710Z,19.00
2019-05-01T05:15:35.415Z,20.50
2019-05-01T05:18:09.128Z,19.25
2019-05-01T05:20:42.835Z,17.00
2019-05-01T05:23:16.559Z,17.40
2019-05-01T05:25:50.338Z,18.75
2019-05-01T05:28:24.043Z,19.00
2019-05-01T05:30:57.759Z,19.00
2019-05-01T05:33:32.622Z,17.25
2019-05-01T05:36:06.482Z,17.50
2019-05-01T05:38:40.205Z,17.75
2019-05-01T05:41:13.936Z,17.00
2019-05-01T05:43:47.652Z,17.80
2019-05-01T05:46:21.372Z,18.00
2019-05-01T05:48:55.064Z,19.25
2019-05-01T05:51:28.870Z,17.40
2019-05-01T05:54:02.565Z,19.00
2019-05-01T05:56:36.276Z,15.25
2019-05-01T05:59:10.055Z,15.75
2019-05-01T06:01:44.918Z,19.25
2019-05-01T06:04:18.706Z,15.75
2019-05-01T06:06:53.352Z,14.50
2019-05-01T06:09:28.082Z,17.00
2019-05-01T06:12:04.899Z,16.25
2019-05-01T06:14:37.245Z,15.75
2019-05-01T06:17:10.954Z,17.40
2019-05-01T06:19:45.859Z,17.75
2019-05-01T06:22:20.069Z,16.00
2019-05-01T06:24:53.784Z,17.00
2019-05-01T06:27:27.494Z,15.00
2019-05-01T06:30:01.202Z,16.00
2019-05-01T06:32:36.261Z,14.60
2019-05-01T06:35:10.063Z,14.00
2019-05-01T06:38:00.710Z,16.25
2019-05-01T06:40:37.071Z,15.25
2019-05-01T06:43:27.271Z,16.00
2019-05-01T06:46:01.161Z,14.50
2019-05-01T06:48:34.897Z,14.20
2019-05-01T06:51:08.598Z,14.50
2019-05-01T06:53:42.308Z,15.50
2019-05-01T06:56:16.122Z,16.20
2019-05-01T06:58:51.048Z,14.50
2019-05-01T07:01:25.272Z,19.00
2019-05-01T07:04:06.150Z,16.75
2019-05-01T07:06:34.835Z,18.75
2019-05-01T07:09:11.948Z,19.00
2019-05-01T07:11:47.738Z,18.75
2019-05-01T07:14:19.491Z,17.00
2019-05-01T07:16:53.241Z,16.25
2019-05-01T07:19:26.988Z,17.75
2019-05-01T07:22:01.804Z,15.50
2019-05-01T07:24:36.135Z,18.25
2019-05-01T07:27:09.883Z,19.60
2019-05-01T07:29:45.032Z,14.75
2019-05-01T07:32:19.111Z,18.80
2019-05-01T07:34:56.962Z,15.50
2019-05-01T07:37:28.240Z,16.60
2019-05-01T07:40:02.001Z,16.25
2019-05-01T07:42:35.715Z,15.25
2019-05-01T07:45:09.785Z,18.00
2019-05-01T07:47:43.588Z,15.00
2019-05-01T07:50:17.297Z,18.20
2019-05-01T07:52:52.258Z,17.25
2019-05-01T07:55:26.424Z,15.00
2019-05-01T07:58:00.145Z,16.00
2019-05-01T08:00:47.987Z,18.75
2019-05-01T08:03:21.707Z,16.50
2019-05-01T08:05:55.406Z,15.25
2019-05-01T08:08:29.119Z,17.20
2019-05-01T08:11:05.354Z,17.50
2019-05-01T08:13:38.316Z,18.00
2019-05-01T08:16:12.011Z,16.60
2019-05-01T08:18:45.823Z,18.00
2019-05-01T08:21:21.254Z,18.25
2019-05-01T08:23:54.968Z,18.75
2019-05-01T08:26:28.706Z,17.75
2019-05-01T08:29:02.970Z,18.75
2019-05-01T08:31:37.859Z,18.25
2019-05-01T08:34:11.568Z,19.00
2019-05-01T08:36:47.176Z,19.25
2019-05-01T08:39:22.885Z,18.00
2019-05-01T08:41:56.602Z,17.00
2019-05-01T08:44:30.857Z,18.25
2019-05-01T08:47:04.708Z,19.50
2019-05-01T08:49:42.196Z,20.00
2019-05-01T08:52:14.149Z,19.40
2019-05-01T08:54:47.899Z,19.75
2019-05-01T08:57:21.639Z,18.75
2019-05-01T08:59:55.654Z,19.00
2019-05-01T09:02:30.868Z,22.25
2019-05-01T09:05:07.146Z,20.00
2019-05-01T09:07:40.928Z,18.25
2019-05-01T09:10:16.992Z,20.75
2019-05-01T09:12:52.072Z,17.50
2019-05-01T09:15:25.551Z,22.00
2019-05-01T09:17:59.265Z,18.50
2019-05-01T09:20:32.978Z,20.50
2019-05-01T09:23:09.498Z,20.00
2019-05-01T09:25:42.138Z,21.25
2019-05-01T09:28:15.978Z,20.00
2019-05-01T09:30:49.697Z,21.75
2019-05-01T09:33:26.207Z,21.80
2019-05-01T09:35:59.331Z,20.00
2019-05-01T09:38:33.064Z,22.50
2019-05-01T09:41:06.846Z,22.50
2019-05-01T09:43:40.626Z,23.25
2019-05-01T09:46:14.486Z,22.25
2019-05-01T09:48:48.343Z,25.00
2019-05-01T09:51:22.045Z,25.00
2019-05-01T09:53:55.751Z,25.00
2019-05-01T09:56:29.499Z,25.00
2019-05-01T09:59:03.217Z,26.00
2019-05-01T10:01:36.931Z,26.00
2019-05-01T10:04:10.649Z,25.00
2019-05-01T10:06:47.597Z,24.25
2019-05-01T10:09:19.879Z,22.75
2019-05-01T10:11:53.659Z,23.60
2019-05-01T10:14:31.528Z,24.25
2019-05-01T10:17:02.776Z,24.00
2019-05-01T10:19:36.500Z,23.75
2019-05-01T10:22:10.222Z,25.00
2019-05-01T10:24:43.944Z,26.50
2019-05-01T10:27:17.661Z,24.00
2019-05-01T10:29:51.402Z,23.25
2019-05-01T10:32:25.106Z,23.25
2019-05-01T10:34:58.902Z,22.50
2019-05-01T10:37:33.568Z,24.00
2019-05-01T10:40:08.327Z,23.75
2019-05-01T10:42:42.051Z,24.00
2019-05-01T10:45:15.762Z,27.00
2019-05-01T10:47:49.505Z,22.25
2019-05-01T10:50:23.226Z,24.00
2019-05-01T10:52:56.922Z,23.75
2019-05-01T10:55:30.700Z,22.20
2019-05-01T10:58:04.488Z,24.00
2019-05-01T11:00:38.205Z,24.00
2019-05-01T11:03:13.001Z,24.00
2019-05-01T11:05:55.637Z,23.60
2019-05-01T11:08:22.154Z,24.00
2019-05-01T11:10:55.953Z,23.80
2019-05-01T11:13:29.701Z,22.00
2019-05-01T11:16:03.482Z,24.00
2019-05-01T11:18:37.311Z,24.75
2019-05-01T11:21:11.028Z,24.25
2019-05-01T11:23:44.759Z,23.00
2019-05-01T11:26:18.597Z,23.25
2019-05-01T11:28:52.298Z,23.25
2019-05-01T11:31:26.116Z,24.00
2019-05-01T11:33:59.839Z,26.00
2019-05-01T11:36:33.574Z,23.25
2019-05-01T11:39:07.337Z,24.25
2019-05-01T11:41:41.068Z,26.00
2019-05-01T11:44:14.782Z,23.25
2019-05-01T11:46:48.512Z,23.25
2019-05-01T11:49:22.314Z,25.50
2019-05-01T11:51:56.102Z,25.00
2019-05-01T11:54:29.862Z,24.50
2019-05-01T11:57:03.672Z,20.75
2019-05-01T11:59:37.394Z,24.75
2019-05-01T12:02:11.244Z,24.60
2019-05-01T12:04:44.997Z,24.20
2019-05-01T12:07:18.703Z,23.75
2019-05-01T12:09:52.407Z,24.25
2019-05-01T12:12:26.124Z,26.00
2019-05-01T12:14:59.896Z,25.50
2019-05-01T12:17:33.630Z,24.75
2019-05-01T12:20:07.402Z,25.25
2019-05-01T12:22:41.446Z,25.00
2019-05-01T12:25:15.167Z,25.20
2019-05-01T12:27:48.894Z,25.00
2019-05-01T12:30:22.697Z,25.25
2019-05-01T12:32:56.398Z,23.00
2019-05-01T12:35:30.144Z,25.20
2019-05-01T12:38:03.974Z,24.75
2019-05-01T12:40:37.747Z,25.00
2019-05-01T12:43:12.377Z,24.75
2019-05-01T12:45:46.384Z,23.50
2019-05-01T12:48:20.130Z,25.00
2019-05-01T12:50:53.961Z,23.00
2019-05-01T12:53:27.693Z,25.00
2019-05-01T12:56:01.415Z,25.50
2019-05-01T12:58:35.126Z,24.80
2019-05-01T13:01:08.870Z,24.50
2019-05-01T13:03:42.557Z,25.00
2019-05-01T13:06:16.279Z,25.00
2019-05-01T13:08:49.985Z,24.00
2019-05-01T13:11:23.782Z,25.00
2019-05-01T13:13:57.593Z,25.20
2019-05-01T13:16:31.329Z,25.50
2019-05-01T13:19:05.117Z,23.00
2019-05-01T13:21:38.929Z,26.00
2019-05-01T13:24:13.815Z,25.20
2019-05-01T13:26:47.563Z,24.00
2019-05-01T13:29:21.266Z,24.00
2019-05-01T13:31:55.038Z,24.00
2019-05-01T13:34:28.749Z,21.75
2019-05-01T13:37:03.491Z,23.60
2019-05-01T13:39:37.378Z,22.60
2019-05-01T13:42:11.095Z,23.25
2019-05-01T13:44:44.811Z,24.25
2019-05-01T13:47:18.555Z,22.83
2019-05-01T13:49:52.278Z,23.75
2019-05-01T13:52:25.991Z,23.75
2019-05-01T13:54:59.741Z,23.00
2019-05-01T13:57:33.512Z,24.00
2019-05-01T14:00:07.391Z,24.50
2019-05-01T14:02:41.106Z,23.00
2019-05-01T14:05:14.811Z,22.75
2019-05-01T14:07:48.532Z,22.20
2019-05-01T14:10:22.336Z,23.25
2019-05-01T14:12:56.091Z,23.75
2019-05-01T14:15:29.937Z,23.75
2019-05-01T14:18:03.656Z,24.20
2019-05-01T14:20:38.209Z,21.50
2019-05-01T14:23:11.939Z,21.75
2019-05-01T14:25:45.732Z,21.40
2019-05-01T14:28:19.473Z,25.00
2019-05-01T14:30:53.222Z,25.25
2019-05-01T14:33:26.986Z,22.25
2019-05-01T14:36:00.754Z,25.75
2019-05-01T14:38:34.483Z,25.00
2019-05-01T14:41:08.206Z,24.00
2019-05-01T14:43:41.992Z,25.00
2019-05-01T14:46:15.694Z,23.00
2019-05-01T14:48:49.442Z,22.25
2019-05-01T14:51:23.194Z,22.25
2019-05-01T14:53:56.897Z,24.75
2019-05-01T14:56:30.648Z,24.20
2019-05-01T14:59:04.499Z,25.00
2019-05-01T15:01:38.204Z,24.75
2019-05-01T15:04:13.121Z,24.67
2019-05-01T15:06:46.823Z,24.20
2019-05-01T15:09:20.752Z,25.00
2019-05-01T15:11:54.470Z,22.25
2019-05-01T15:14:28.199Z,24.25
2019-05-01T15:17:01.925Z,25.00
2019-05-01T15:19:35.629Z,24.75
2019-05-01T15:22:09.318Z,24.00
2019-05-01T15:24:43.130Z,23.00
2019-05-01T15:27:17.155Z,24.00
2019-05-01T15:29:50.865Z,22.80
2019-05-01T15:32:24.601Z,22.00
2019-05-01T15:34:58.333Z,24.25
2019-05-01T15:37:32.071Z,22.80
2019-05-01T15:40:06.153Z,24.00
2019-05-01T15:42:39.873Z,24.00
2019-05-01T15:45:13.574Z,21.50
2019-05-01T15:47:47.325Z,22.25
2019-05-01T15:50:21.051Z,22.00
2019-05-01T15:52:54.751Z,22.50
2019-05-01T15:55:28.485Z,24.00
2019-05-01T15:58:02.291Z,22.00
2019-05-01T16:00:36.078Z,22.00
2019-05-01T16:03:09.799Z,23.50
2019-05-01T16:05:43.512Z,22.25
2019-05-01T16:08:17.269Z,22.80
2019-05-01T16:10:50.979Z,20.20
2019-05-01T16:13:24.782Z,20.25
2019-05-01T16:15:58.520Z,23.25
2019-05-01T16:18:32.240Z,21.40
2019-05-01T16:21:05.968Z,19.25
2019-05-01T16:23:39.653Z,22.25
2019-05-01T16:26:13.352Z,21.50
2019-05-01T16:28:47.086Z,19.60
2019-05-01T16:31:20.808Z,21.75
2019-05-01T16:33:54.526Z,20.25
2019-05-01T16:36:28.266Z,21.80
2019-05-01T16:39:02.027Z,20.75
2019-05-01T16:41:35.738Z,19.00
2019-05-01T16:44:09.644Z,22.00
2019-05-01T16:46:43.656Z,21.50
2019-05-01T16:49:17.372Z,22.80
2019-05-01T16:51:51.104Z,21.25
2019-05-01T16:54:24.812Z,21.25
2019-05-01T16:56:58.593Z,19.00
2019-05-01T16:59:32.310Z,18.60
2019-05-01T17:02:06.020Z,22.00
2019-05-01T17:04:39.756Z,22.25
2019-05-01T17:07:13.543Z,23.00
2019-05-01T17:09:47.338Z,21.00
2019-05-01T17:12:21.184Z,21.00
2019-05-01T17:14:55.000Z,19.75
2019-05-01T17:17:28.724Z,21.25
2019-05-01T17:20:03.107Z,22.80
2019-05-01T17:22:36.826Z,21.75
2019-05-01T17:25:10.543Z,21.25
2019-05-01T17:27:44.281Z,21.25
2019-05-01T17:30:21.284Z,19.60
2019-05-01T17:32:55.105Z,21.50
2019-05-01T17:35:28.916Z,21.00
2019-05-01T17:38:02.701Z,22.00
2019-05-01T17:40:36.438Z,21.00
2019-05-01T17:43:13.506Z,20.75
2019-05-01T17:45:45.603Z,20.25
2019-05-01T17:48:19.633Z,20.75
2019-05-01T17:50:55.156Z,22.75
2019-05-01T17:53:28.859Z,23.00
2019-05-01T17:56:02.590Z,20.80
2019-05-01T17:58:36.301Z,20.25
2019-05-01T18:01:10.064Z,23.00
2019-05-01T18:03:43.788Z,22.25
2019-05-01T18:06:17.513Z,21.75
2019-05-01T18:09:02.509Z,21.50
2019-05-01T18:11:27.167Z,21.25
2019-05-01T18:14:00.907Z,21.50
2019-05-01T18:16:34.639Z,20.20
2019-05-01T18:19:09.900Z,21.50
2019-05-01T18:21:46.785Z,22.50
2019-05-01T18:24:23.179Z,19.00
2019-05-01T18:26:54.913Z,21.75
2019-05-01T18:29:28.622Z,22.40
2019-05-01T18:32:03.061Z,19.00
2019-05-01T18:34:38.342Z,19.25
2019-05-01T18:37:13.826Z,20.40
2019-05-01T18:39:47.544Z,20.20
2019-05-01T18:42:21.240Z,17.00
2019-05-01T18:44:55.016Z,18.75
2019-05-01T18:47:28.832Z,21.40
2019-05-01T18:50:04.211Z,19.00
2019-05-01T18:52:37.930Z,16.75
2019-05-01T18:55:11.730Z,21.80
2019-05-01T18:57:45.467Z,20.00
2019-05-01T19:00:19.172Z,21.00
2019-05-01T19:02:52.898Z,18.80
2019-05-01T19:05:26.633Z,19.25
2019-05-01T19:08:00.463Z,17.75
2019-05-01T19:10:34.164Z,21.50
2019-05-01T19:13:07.886Z,22.20
2019-05-01T19:15:41.627Z,19.25
2019-05-01T19:18:15.386Z,21.00
2019-05-01T19:20:59.403Z,20.00
2019-05-01T19:23:27.948Z,17.25
2019-05-01T19:26:04.948Z,21.00
2019-05-01T19:28:36.311Z,17.75
2019-05-01T19:31:10.040Z,19.25
2019-05-01T19:33:43.898Z,19.40
2019-05-01T19:36:17.639Z,20.40
2019-05-01T19:38:51.363Z,19.75
2019-05-01T19:41:25.099Z,19.25
2019-05-01T19:43:58.813Z,20.00
2019-05-01T19:46:32.532Z,17.25
2019-05-01T19:49:06.245Z,20.50
2019-05-01T19:51:40.023Z,19.40
2019-05-01T19:54:13.776Z,21.50
2019-05-01T19:56:47.560Z,20.00
2019-05-01T19:59:21.419Z,20.75
2019-05-01T20:01:55.250Z,19.00
2019-05-01T20:04:28.999Z,20.50
2019-05-01T20:07:02.831Z,21.25
2019-05-01T20:09:36.639Z,21.25
2019-05-01T20:12:10.344Z,20.25
2019-05-01T20:14:44.057Z,20.60
2019-05-01T20:17:17.944Z,20.80
2019-05-01T20:19:51.680Z,20.00
2019-05-01T20:22:25.405Z,20.25
2019-05-01T20:24:59.124Z,20.40
2019-05-01T20:27:32.844Z,21.00
2019-05-01T20:30:07.226Z,20.75
2019-05-01T20:32:40.930Z,20.75
2019-05-01T20:35:14.722Z,21.50
2019-05-01T20:37:48.418Z,22.00
2019-05-01T20:40:22.226Z,22.40
2019-05-01T20:42:55.936Z,20.50
2019-05-01T20:45:29.666Z,22.00
2019-05-01T20:48:03.506Z,22.75
2019-05-01T20:50:37.235Z,23.00
2019-05-01T20:53:10.946Z,19.50
2019-05-01T20:55:44.784Z,22.75
2019-05-01T20:58:18.518Z,22.50
2019-05-01T21:00:53.604Z,24.00
2019-05-01T21:03:27.710Z,22.50
2019-05-01T21:06:02.882Z,23.20
2019-05-01T21:08:39.261Z,23.50
2019-05-01T21:11:13.063Z,18.60
2019-05-01T21:13:46.858Z,22.00
2019-05-01T21:16:20.593Z,21.75
2019-05-01T21:18:54.315Z,21.20
2019-05-01T21:21:28.034Z,25.75
2019-05-01T21:24:03.561Z,23.00
2019-05-01T21:26:37.352Z,21.20
2019-05-01T21:29:11.070Z,22.75
2019-05-01T21:31:44.862Z,21.00
2019-05-01T21:34:18.599Z,22.00
2019-05-01T21:36:53.923Z,21.40
2019-05-01T21:39:27.907Z,21.25
2019-05-01T21:42:06.605Z,23.50
2019-05-01T21:44:37.037Z,25.00
2019-05-01T21:47:10.735Z,24.00
2019-05-01T21:49:44.571Z,21.00
2019-05-01T21:52:23.055Z,23.20
2019-05-01T21:54:55.201Z,22.50
2019-05-01T21:57:30.581Z,21.50
2019-05-01T22:00:06.205Z,25.20
2019-05-01T22:02:41.502Z,24.00
2019-05-01T22:05:15.401Z,21.00
2019-05-01T22:07:49.117Z,24.00
2019-05-01T22:10:26.577Z,22.75
2019-05-01T22:12:58.266Z,23.50
2019-05-01T22:15:32.054Z,22.50
2019-05-01T22:18:05.768Z,22.20
2019-05-01T22:20:39.545Z,23.00
2019-05-01T22:23:17.014Z,23.20
2019-05-01T22:25:49.450Z,21.00
2019-05-01T22:28:23.169Z,21.00
2019-05-01T22:30:56.882Z,24.25
2019-05-01T22:33:30.621Z,21.50
2019-05-01T22:36:04.331Z,23.75
2019-05-01T22:38:38.127Z,22.00
2019-05-01T22:41:11.829Z,21.50
2019-05-01T22:43:45.543Z,23.00
2019-05-01T22:46:19.253Z,21.25
2019-05-01T22:48:52.974Z,21.75
2019-05-01T22:51:26.686Z,23.00
2019-05-01T22:54:00.408Z,25.75
2019-05-01T22:56:34.145Z,23.00
2019-05-01T22:59:07.849Z,21.50
2019-05-01T23:01:41.554Z,21.75
2019-05-01T23:04:17.058Z,22.00
2019-05-01T23:06:50.675Z,25.25
2019-05-01T23:09:28.532Z,22.75
2019-05-01T23:11:59.922Z,26.00
2019-05-01T23:14:33.669Z,23.00
2019-05-01T23:17:07.389Z,23.50
2019-05-01T23:19:41.111Z,22.00
2019-05-01T23:22:14.824Z,23.25
2019-05-01T23:24:48.537Z,21.00
2019-05-01T23:27:24.387Z,21.25
2019-05-01T23:29:57.648Z,21.75
2019-05-01T23:32:31.374Z,20.25
2019-05-01T23:35:05.855Z,20.75
2019-05-01T23:37:39.558Z,18.25
2019-05-01T23:40:15.641Z,22.00
2019-05-01T23:42:52.850Z,21.75
2019-05-01T23:45:24.095Z,18.00
2019-05-01T23:47:57.841Z,21.00
2019-05-01T23:50:31.551Z,19.50
2019-05-01T23:53:09.045Z,16.25
2019-05-01T23:55:40.662Z,20.25
2019-05-01T23:58:14.369Z,20.00
